Time;durP1;ratioP1;P1;durP2;ratioP2;P2;SDS_P1;SDS_P2;PMS_P1;PMS_P2;Temp;Humidity;BMP_temperature;BMP_pressure;BME280_temperature;BME280_humidity;BME280_pressure;Samples;Min_cycle;Max_cycle;Signal;HPM_P1;HPM_P2
2022/01/22 00:01:06;;;;;;;9.55;4.25;;;;;;;-3.99;77.71;100255.00;6297734;28;20404;-68
2022/01/22 00:04:07;;;;;;;10.18;4.25;;;;;;;-3.98;76.56;100247.34;6280229;28;20422;-72
2022/01/22 00:07:09;;;;;;;9.80;4.75;;;;;;;-3.96;75.98;100247.34;6297748;28;20446;-73
2022/01/22 00:10:16;;;;;;;15.68;6.20;;;;;;;-3.98;75.92;100251.59;6263843;28;20055;-73
2022/01/22 00:16:19;;;;;;;14.25;5.07;;;;;;;-4.01;75.95;100237.16;6297793;28;20041;-69
2022/01/22 00:19:20;;;;;;;10.40;3.40;;;;;;;-4.05;76.23;100240.53;6262854;28;20066;-69
2022/01/22 00:22:25;;;;;;;14.63;3.40;;;;;;;-4.07;76.61;100237.13;6265290;28;20040;-73
2022/01/22 00:25:26;;;;;;;10.65;2.95;;;;;;;-4.12;77.45;100244.78;6279818;28;20060;-69
2022/01/22 00:28:27;;;;;;;11.07;3.58;;;;;;;-4.18;78.56;100239.66;6320122;28;20055;-68
2022/01/22 00:31:28;;;;;;;138.15;53.58;;;;;;;-4.27;78.51;100227.75;6304694;28;20097;-68
2022/01/22 00:34:29;;;;;;;58.03;24.08;;;;;;;-4.31;78.92;100225.19;6279503;28;20094;-73
2022/01/22 00:37:30;;;;;;;6.10;3.20;;;;;;;-4.39;79.49;100220.06;6297300;28;20423;-68
2022/01/22 00:40:31;;;;;;;9.55;4.13;;;;;;;-4.40;79.69;100207.34;6296901;28;20064;-73
2022/01/22 00:43:32;;;;;;;8.55;3.47;;;;;;;-4.40;78.52;100192.91;6279476;28;20404;-69
2022/01/22 00:46:33;;;;;;;9.13;3.35;;;;;;;-4.50;77.91;100168.25;6279447;28;20722;-68
2022/01/22 00:49:34;;;;;;;6.97;2.50;;;;;;;-4.56;78.18;100158.06;6262800;28;20055;-68
2022/01/22 00:52:35;;;;;;;9.05;2.95;;;;;;;-4.60;78.60;100135.97;6308350;28;20055;-69
2022/01/22 00:55:36;;;;;;;3.20;1.52;;;;;;;-4.76;78.33;100110.47;6304217;28;20123;-73
2022/01/22 00:58:37;;;;;;;5.55;2.42;;;;;;;-4.82;78.94;100120.63;6303617;28;20052;-72
2022/01/22 01:01:38;;;;;;;10.02;2.55;;;;;;;-4.87;79.81;100146.09;6303182;28;20040;-72
2022/01/22 01:04:39;;;;;;;6.13;2.65;;;;;;;-5.08;80.63;100172.31;6321595;28;20549;-73
2022/01/22 01:07:41;;;;;;;8.48;2.42;;;;;;;-5.01;80.96;100174.88;6291014;28;20076;-73
2022/01/22 01:10:41;;;;;;;9.73;3.65;;;;;;;-5.03;80.96;100177.41;6279125;28;20044;-73
2022/01/22 01:13:46;;;;;;;7.38;2.55;;;;;;;-5.09;81.45;100196.03;6282675;28;20051;-72
2022/01/22 01:33:22;;;;;;;7.35;2.33;;;;;;;-4.93;83.52;100203.75;6326818;28;20055;-68
2022/01/22 01:36:23;;;;;;;5.95;2.03;;;;;;;-4.89;84.16;100196.13;6293062;28;20053;-68
2022/01/22 01:39:29;;;;;;;5.10;2.08;;;;;;;-4.70;83.79;100198.75;6326529;28;20043;-68
2022/01/22 01:46:03;;;;;;;;;;;;;;;-4.68;84.60;100191.97;6269925;28;20143;-68
2022/01/22 01:49:04;;;;;;;5.35;2.78;;;;;;;-4.58;83.69;100192.84;6326242;28;19920;-73
2022/01/22 01:52:10;;;;;;;4.85;2.40;;;;;;;-4.61;83.46;100188.63;6291773;28;20123;-73
2022/01/22 01:55:17;;;;;;;7.70;2.22;;;;;;;-4.54;83.53;100184.38;6326244;28;20357;-73
2022/01/22 01:58:18;;;;;;;7.22;2.65;;;;;;;-4.53;83.71;100184.41;6326180;28;20048;-73
2022/01/22 02:01:19;;;;;;;7.70;2.28;;;;;;;-4.58;84.48;100182.66;6325819;28;20699;-68
2022/01/22 02:04:19;;;;;;;3.72;1.77;;;;;;;-4.62;84.82;100178.41;6308095;28;20050;-73
2022/01/22 02:07:20;;;;;;;12.55;2.28;;;;;;;-4.52;84.77;100170.78;6291350;28;20177;-73
2022/01/22 02:10:27;;;;;;;4.05;1.58;;;;;;;-4.57;84.95;100162.31;6307696;28;20488;-72
2022/01/22 02:23:44;;;;;;;6.03;2.08;;;;;;;-4.44;85.65;100135.16;6309692;28;20040;-73
2022/01/22 02:26:49;;;;;;;6.90;2.28;;;;;;;-4.35;86.19;100132.59;6307191;28;20062;-73
2022/01/22 02:29:50;;;;;;;8.00;2.72;;;;;;;-4.34;86.87;100131.78;6325665;28;20157;-73
2022/01/22 02:36:45;;;;;;;5.93;2.85;;;;;;;-4.41;87.34;100107.13;6249044;28;20049;-73
2022/01/22 02:40:00;;;;;;;5.03;2.65;;;;;;;-4.29;87.15;100108.84;6306828;28;20040;-68
2022/01/22 02:43:01;;;;;;;11.45;4.15;;;;;;;-4.31;86.92;100105.44;6268668;28;20088;-69
2022/01/22 02:46:02;;;;;;;11.52;3.47;;;;;;;-4.29;87.40;100107.13;6282094;28;20047;-68
2022/01/22 02:49:03;;;;;;;5.43;2.58;;;;;;;-4.27;87.12;100102.88;6299790;28;20036;-68
2022/01/22 02:52:09;;;;;;;10.65;2.67;;;;;;;-4.31;86.90;100108.00;6265432;28;20041;-68
2022/01/22 02:55:12;;;;;;;5.97;2.50;;;;;;;-4.34;86.68;100102.91;6299661;28;20106;-69
2022/01/22 02:58:14;;;;;;;3.90;2.20;;;;;;;-4.38;87.71;100103.75;6299809;28;20040;-68
2022/01/22 03:01:17;;;;;;;8.90;3.03;;;;;;;-4.42;88.15;100087.63;6299493;28;20093;-68
2022/01/22 03:04:18;;;;;;;13.82;3.47;;;;;;;-4.38;87.69;100096.97;6280079;28;20048;-69
2022/01/22 03:07:19;;;;;;;14.25;4.20;;;;;;;-4.27;87.58;100084.22;6275838;28;20037;-73
2022/01/22 03:10:23;;;;;;;7.60;2.63;;;;;;;-4.30;88.29;100074.03;6258811;28;20059;-69
2022/01/22 03:20:02;;;;;;;9.00;3.13;;;;;;;-4.21;88.29;100047.69;6274199;28;20049;-68
2022/01/22 03:29:43;;;;;;;11.27;3.80;;;;;;;-4.20;89.99;100062.13;6259054;28;20041;-73
2022/01/22 03:32:48;;;;;;;16.42;4.97;;;;;;;-4.27;90.14;100057.03;6274162;28;20072;-73
2022/01/22 03:35:55;;;;;;;8.00;3.70;;;;;;;-4.38;90.88;100051.09;6224089;28;20037;-68
2022/01/22 03:38:56;;;;;;;6.22;3.20;;;;;;;-4.32;90.69;100057.91;6240755;28;20057;-70
2022/01/22 03:41:57;;;;;;;9.90;3.35;;;;;;;-4.41;92.32;100053.63;6270414;28;20139;-69
2022/01/22 03:44:58;;;;;;;5.65;2.95;;;;;;;-4.46;92.75;100063.00;6298432;28;20075;-68
2022/01/22 03:47:58;;;;;;;4.57;2.35;;;;;;;-4.39;92.50;100068.94;6298586;28;20066;-68
2022/01/22 03:50:59;;;;;;;9.50;4.28;;;;;;;-4.31;91.22;100074.88;6286785;28;20051;-68
2022/01/22 03:54:00;;;;;;;10.45;4.10;;;;;;;-4.27;90.80;100074.03;6298078;28;20472;-68
2022/01/22 03:57:01;;;;;;;8.30;3.40;;;;;;;-4.17;90.93;100065.53;6308577;28;20491;-68
2022/01/22 04:00:06;;;;;;;7.83;2.93;;;;;;;-4.31;92.02;100079.97;6305057;28;20055;-68
2022/01/22 04:09:37;;;;;;;15.15;6.18;;;;;;;-4.20;91.23;100046.84;6322554;28;20491;-69
2022/01/22 04:15:40;;;;;;;9.65;5.00;;;;;;;-4.19;92.28;100059.56;6304901;28;20046;-69
2022/01/22 04:25:24;;;;;;;20.88;5.35;;;;;;;-4.12;95.39;100079.13;6322666;28;20395;-69
2022/01/22 04:28:24;;;;;;;12.52;5.72;;;;;;;-4.03;93.72;100067.22;6288230;28;20051;-68
2022/01/22 04:31:25;;;;;;;17.60;6.10;;;;;;;-3.94;93.08;100072.28;6304509;28;20054;-68
2022/01/22 04:34:26;;;;;;;11.80;4.80;;;;;;;-3.81;91.96;100075.66;6279501;28;20040;-69
2022/01/22 04:37:28;;;;;;;13.27;5.20;;;;;;;-3.81;92.21;100080.75;6263246;28;20063;-68
2022/01/22 04:40:29;;;;;;;10.52;4.18;;;;;;;-3.85;92.71;100085.88;6297122;28;20059;-68
2022/01/22 04:43:32;;;;;;;12.13;4.50;;;;;;;-3.86;92.04;100081.63;6279838;28;20469;-73
2022/01/22 04:56:04;;;;;;;6.28;3.53;;;;;;;-3.86;92.82;100083.31;6282056;28;20044;-73
2022/01/22 04:59:05;;;;;;;7.80;2.95;;;;;;;-3.86;92.42;100081.63;6296032;28;20040;-73
2022/01/22 05:02:06;;;;;;;7.93;3.95;;;;;;;-3.95;93.59;100076.56;6277571;28;20465;-75
2022/01/22 05:05:07;;;;;;;6.32;3.38;;;;;;;-4.07;94.54;100076.56;6252310;28;20063;-69
2022/01/22 05:08:08;;;;;;;5.68;2.78;;;;;;;-4.20;96.53;100069.75;6290939;28;20041;-69
2022/01/22 05:11:09;;;;;;;11.63;3.67;;;;;;;-4.15;95.94;100078.28;6296681;28;20048;-69
2022/01/22 05:14:10;;;;;;;7.70;3.90;;;;;;;-4.28;96.51;100079.97;6278934;28;20079;-73
2022/01/22 05:17:12;;;;;;;9.40;3.75;;;;;;;-4.28;96.38;100072.34;6296999;28;20048;-73
2022/01/22 05:23:24;;;;;;;11.68;3.78;;;;;;;-4.23;96.18;100075.72;6295804;28;20045;-73
2022/01/22 05:39:10;;;;;;;8.73;3.85;;;;;;;-4.55;96.79;100065.50;6296546;28;20063;-73
2022/01/22 05:42:11;;;;;;;13.05;4.60;;;;;;;-4.68;97.60;100055.31;6261764;28;20056;-73
2022/01/22 05:45:12;;;;;;;13.60;6.05;;;;;;;-4.67;97.91;100057.03;6278858;28;20484;-73
2022/01/22 05:48:13;;;;;;;11.52;4.68;;;;;;;-4.71;98.59;100065.50;6296485;28;20041;-73
2022/01/22 05:51:15;;;;;;;24.05;11.95;;;;;;;-4.68;98.72;100060.41;6278255;28;20040;-73
2022/01/22 06:00:49;;;;;;;18.58;6.78;;;;;;;-4.83;98.79;100065.50;6280787;28;20019;-73
2022/01/22 06:03:50;;;;;;;24.30;9.27;;;;;;;-4.89;97.81;100071.41;6296262;28;20043;-73
2022/01/22 06:06:51;;;;;;;42.97;12.18;;;;;;;-4.86;97.88;100070.56;6294462;28;20040;-73
2022/01/22 06:13:17;;;;;;;37.58;12.35;;;;;;;-4.89;98.64;100089.22;6292872;28;20119;-69
2022/01/22 06:16:23;;;;;;;37.45;11.60;;;;;;;-4.90;98.24;100085.00;6287769;28;20068;-68
2022/01/22 06:19:25;;;;;;;33.92;11.88;;;;;;;-4.89;96.47;100098.56;6325776;28;20040;-73
2022/01/22 06:22:26;;;;;;;30.85;10.63;;;;;;;-4.88;96.95;100098.59;6325578;28;20447;-69
2022/01/22 06:25:27;;;;;;;22.17;8.65;;;;;;;-4.87;96.67;100104.50;6291106;28;20043;-73
2022/01/22 06:28:28;;;;;;;20.73;7.55;;;;;;;-4.89;95.64;100104.50;6302411;28;20384;-68
2022/01/22 06:31:29;;;;;;;14.98;7.22;;;;;;;-4.96;96.82;100124.84;6265652;28;20131;-68
2022/01/22 06:34:30;;;;;;;20.73;8.45;;;;;;;-5.01;97.80;100124.81;6300338;28;20083;-69
2022/01/22 06:37:31;;;;;;;19.15;8.10;;;;;;;-4.92;96.08;100124.00;6282421;28;20058;-69
2022/01/22 06:43:33;;;;;;;21.95;9.25;;;;;;;-4.91;94.78;100124.00;6282241;28;20094;-68
2022/01/22 06:46:34;;;;;;;26.85;9.98;;;;;;;-4.82;94.60;100129.97;6272844;28;20032;-68
2022/01/22 06:49:35;;;;;;;21.30;8.60;;;;;;;-4.77;92.06;100129.16;6325118;28;20484;-68
2022/01/22 06:52:37;;;;;;;18.50;8.55;;;;;;;-4.73;91.56;100137.66;6307099;28;20111;-68
2022/01/22 06:55:50;;;;;;;15.48;7.20;;;;;;;-4.77;91.67;100141.03;6305927;28;20032;-68
2022/01/22 06:58:51;;;;;;;18.25;7.93;;;;;;;-4.95;92.40;100139.28;6281822;28;20060;-73
2022/01/22 07:01:54;;;;;;;22.67;10.00;;;;;;;-5.16;98.37;100147.69;6289713;28;20111;-68
2022/01/22 07:04:55;;;;;;;19.58;7.60;;;;;;;-4.89;97.43;100142.69;6265543;28;20052;-68
2022/01/22 07:07:56;;;;;;;11.45;5.00;;;;;;;-4.69;95.87;100145.28;6315628;28;20055;-68
2022/01/22 07:10:57;;;;;;;9.50;4.28;;;;;;;-4.58;96.43;100141.94;6306507;28;20048;-68
2022/01/22 07:13:58;;;;;;;12.40;4.45;;;;;;;-4.41;95.99;100150.44;6284040;28;20054;-68
2022/01/22 07:16:58;;;;;;;13.43;3.88;;;;;;;-4.26;95.35;100160.66;6281100;28;20396;-68
2022/01/22 07:19:59;;;;;;;13.43;3.83;;;;;;;-4.23;95.17;100164.91;6280507;28;20067;-68
2022/01/22 07:23:03;;;;;;;9.82;4.63;;;;;;;-4.15;95.83;100162.38;6279577;28;20484;-69
2022/01/22 07:26:06;;;;;;;51.60;17.58;;;;;;;-4.09;94.33;100160.66;6281680;28;20400;-73
2022/01/22 07:29:07;;;;;;;24.02;7.85;;;;;;;-3.94;94.02;100167.47;6302018;28;20105;-69
2022/01/22 07:32:13;;;;;;;55.53;20.23;;;;;;;-3.75;93.67;100177.66;6286157;28;20048;-69
2022/01/22 07:35:19;;;;;;;34.40;15.23;;;;;;;-3.61;92.40;100175.94;6264530;28;20036;-69
2022/01/22 07:38:21;;;;;;;67.97;27.63;;;;;;;-3.49;91.25;100180.19;6281372;28;20048;-73
2022/01/22 07:41:22;;;;;;;71.35;27.42;;;;;;;-3.41;90.64;100181.00;6298431;28;20044;-68
2022/01/22 07:44:23;;;;;;;49.75;19.55;;;;;;;-3.29;91.02;100180.16;6264353;28;20040;-73
2022/01/22 07:47:24;;;;;;;27.30;11.45;;;;;;;-3.15;91.13;100192.84;6311843;28;20039;-73
2022/01/22 07:50:25;;;;;;;25.17;11.05;;;;;;;-3.05;88.89;100191.97;6290441;28;20048;-68
2022/01/22 07:53:26;;;;;;;21.65;10.30;;;;;;;-3.02;88.64;100186.03;6308008;28;20036;-68
2022/01/22 07:56:27;;;;;;;24.00;10.00;;;;;;;-2.98;87.51;100186.00;6289329;28;20468;-69
2022/01/22 07:59:30;;;;;;;12.10;6.95;;;;;;;-2.95;87.31;100182.59;6263825;28;20098;-68
2022/01/22 08:02:30;;;;;;;14.05;6.53;;;;;;;-2.91;86.92;100179.16;6305223;28;20044;-69
2022/01/22 08:05:31;;;;;;;19.40;9.40;;;;;;;-2.85;87.20;100176.59;6291603;28;20396;-70
2022/01/22 08:08:34;;;;;;;17.55;8.30;;;;;;;-2.58;84.65;100179.88;6279851;28;20055;-69
2022/01/22 08:11:36;;;;;;;12.90;6.88;;;;;;;-2.58;84.76;100182.41;6297753;28;20049;-73
2022/01/22 08:14:37;;;;;;;14.35;7.53;;;;;;;-2.64;84.40;100183.28;6297538;28;20114;-73
2022/01/22 08:17:38;;;;;;;16.63;8.50;;;;;;;-2.44;83.89;100189.16;6297448;28;20056;-73
2022/01/22 08:20:39;;;;;;;22.58;9.25;;;;;;;-2.16;83.44;100190.69;6296858;28;20049;-73
2022/01/22 08:23:40;;;;;;;25.20;10.50;;;;;;;-2.29;83.20;100192.47;6296997;28;20060;-73
2022/01/22 08:26:49;;;;;;;18.50;10.48;;;;;;;-2.10;83.83;100198.31;6279642;28;20045;-70
2022/01/22 08:29:50;;;;;;;39.17;21.65;;;;;;;-1.93;82.49;100205.88;6264319;28;20044;-69
2022/01/22 08:33:09;;;;;;;30.58;12.30;;;;;;;-1.91;82.45;100206.72;6279544;28;20094;-69
2022/01/22 08:36:10;;;;;;;23.95;9.38;;;;;;;-1.70;81.72;100214.19;6297216;28;20119;-73
2022/01/22 08:39:15;;;;;;;14.18;7.30;;;;;;;-1.45;80.68;100217.41;6297432;28;20041;-73
2022/01/22 08:42:16;;;;;;;23.90;8.90;;;;;;;-1.13;78.71;100202.56;6296763;28;20060;-69
2022/01/22 08:45:17;;;;;;;19.77;8.02;;;;;;;-0.84;77.86;100203.09;6297334;28;20115;-70
2022/01/22 08:48:20;;;;;;;17.50;7.70;;;;;;;-0.70;76.70;100200.38;6262730;28;20051;-68
2022/01/22 08:51:21;;;;;;;13.90;8.25;;;;;;;-0.61;73.67;100210.50;6296828;28;20040;-69
2022/01/22 08:54:23;;;;;;;17.57;7.60;;;;;;;-0.54;75.03;100207.84;6278542;28;20036;-69
2022/01/22 08:57:23;;;;;;;15.50;7.40;;;;;;;-0.56;73.75;100214.72;6245886;28;20052;-69
2022/01/22 09:00:24;;;;;;;18.92;8.45;;;;;;;-0.19;72.95;100219.34;6278209;28;20044;-73
2022/01/22 09:03:26;;;;;;;19.58;7.85;;;;;;;0.14;72.17;100221.41;6278327;28;20037;-68
2022/01/22 09:06:28;;;;;;;30.10;15.52;;;;;;;-0.74;73.06;100218.34;6296267;28;20040;-69
2022/01/22 09:09:29;;;;;;;26.30;10.73;;;;;;;-0.46;71.41;100222.25;6278315;28;20050;-69
2022/01/22 09:12:30;;;;;;;20.52;8.32;;;;;;;-0.71;72.67;100221.72;6278237;28;20048;-69
2022/01/22 09:15:31;;;;;;;20.95;8.57;;;;;;;0.02;71.46;100229.28;6278131;28;20085;-69
2022/01/22 09:18:32;;;;;;;15.00;7.90;;;;;;;0.09;71.65;100223.22;6296123;28;20064;-73
2022/01/22 09:21:34;;;;;;;14.18;7.18;;;;;;;0.09;70.25;100225.78;6277901;28;20040;-73
2022/01/22 09:24:34;;;;;;;23.40;10.40;;;;;;;0.52;69.10;100230.22;6296578;28;20036;-73
2022/01/22 09:27:35;;;;;;;15.52;7.95;;;;;;;0.82;67.89;100222.84;6305078;28;20044;-73
2022/01/22 09:30:36;;;;;;;18.73;9.07;;;;;;;0.60;66.86;100228.38;6289949;28;20071;-73
2022/01/22 09:33:39;;;;;;;18.52;8.20;;;;;;;0.38;70.78;100227.03;6300768;28;20036;-73
2022/01/22 09:36:40;;;;;;;26.42;9.48;;;;;;;0.84;69.49;100226.22;6320683;28;20044;-73
2022/01/22 09:39:41;;;;;;;19.13;8.30;;;;;;;0.36;70.55;100234.75;6320506;28;20079;-74
2022/01/22 09:42:42;;;;;;;17.40;9.07;;;;;;;0.23;70.95;100247.78;6302274;28;20044;-70
2022/01/22 09:45:44;;;;;;;14.45;8.75;;;;;;;-0.24;74.34;100245.91;6286044;28;20408;-69
2022/01/22 09:48:47;;;;;;;26.13;11.25;;;;;;;-0.04;73.81;100242.25;6307308;28;20373;-70
2022/01/22 09:51:48;;;;;;;23.05;9.98;;;;;;;0.39;71.85;100245.00;6307350;28;20081;-69
2022/01/22 09:54:49;;;;;;;21.48;9.45;;;;;;;0.31;72.80;100244.25;6307149;28;20050;-69
2022/01/22 09:57:50;;;;;;;17.88;9.48;;;;;;;0.02;74.63;100242.13;6325238;28;20036;-69
2022/01/22 10:00:51;;;;;;;15.45;5.70;;;;;;;0.68;68.71;100238.53;6324959;28;20071;-74
2022/01/22 10:03:55;;;;;;;8.63;4.40;;;;;;;0.75;67.09;100249.53;6306944;28;20040;-73
2022/01/22 10:06:55;;;;;;;8.90;4.57;;;;;;;0.75;67.40;100254.66;6325472;28;20451;-73
2022/01/22 10:10:03;;;;;;;10.85;4.80;;;;;;;1.08;67.17;100252.34;6324918;28;20044;-73
2022/01/22 10:13:04;;;;;;;15.73;6.00;;;;;;;1.19;65.41;100245.28;6306798;28;20064;-73
2022/01/22 10:16:15;;;;;;;13.23;5.28;;;;;;;1.12;64.29;100248.84;6324651;28;20046;-73
2022/01/22 10:19:21;;;;;;;11.20;5.10;;;;;;;1.29;64.79;100238.22;6324774;28;20036;-73
2022/01/22 10:22:23;;;;;;;10.00;3.47;;;;;;;1.52;60.76;100236.03;6306618;28;20124;-73
2022/01/22 10:25:32;;;;;;;10.43;4.18;;;;;;;1.67;64.75;100239.16;6290293;28;20040;-69
2022/01/22 10:28:46;;;;;;;10.65;5.07;;;;;;;1.93;61.18;100242.00;6324478;28;20044;-69
2022/01/22 10:31:49;;;;;;;6.45;3.75;;;;;;;2.12;58.44;100236.44;6324567;28;20044;-69
2022/01/22 10:35:03;;;;;;;11.38;3.80;;;;;;;1.95;59.92;100224.81;6306009;28;20040;-70
2022/01/22 10:38:04;;;;;;;7.20;3.47;;;;;;;1.34;61.11;100223.56;6324353;28;20480;-69
2022/01/22 10:41:07;;;;;;;7.38;3.72;;;;;;;1.80;59.03;100220.84;6305864;28;20135;-69
2022/01/22 10:44:14;;;;;;;7.25;3.50;;;;;;;2.03;58.18;100229.78;6306294;28;20074;-69
2022/01/22 10:47:22;;;;;;;7.80;3.30;;;;;;;2.18;54.69;100226.88;6306361;28;20389;-73
2022/01/22 10:50:23;;;;;;;7.30;3.28;;;;;;;2.13;53.92;100227.84;6324036;28;20047;-74
2022/01/22 10:53:49;;;;;;;7.45;3.40;;;;;;;1.94;54.27;100233.41;6306118;28;20135;-74
2022/01/22 10:56:51;;;;;;;10.27;3.78;;;;;;;2.02;54.90;100225.53;6305598;28;20056;-74
2022/01/22 10:59:58;;;;;;;14.02;6.50;;;;;;;2.40;54.45;100231.47;6323620;28;20400;-73
2022/01/22 11:03:18;;;;;;;99.43;32.17;;;;;;;2.02;54.05;100238.41;6305733;28;20040;-73
2022/01/22 11:06:27;;;;;;;86.75;29.20;;;;;;;2.12;54.31;100246.72;6305587;28;20044;-73
2022/01/22 11:09:30;;;;;;;25.70;9.30;;;;;;;2.38;55.24;100244.38;6305619;28;20408;-74
2022/01/22 11:12:31;;;;;;;4.10;2.30;;;;;;;1.86;57.78;100249.91;6323456;28;20040;-74
2022/01/22 11:15:33;;;;;;;5.68;3.30;;;;;;;1.73;58.70;100247.63;6323392;28;20085;-73
2022/01/22 11:18:34;;;;;;;7.80;3.10;;;;;;;2.06;59.62;100239.16;6323351;28;20032;-74
2022/01/22 11:21:44;;;;;;;7.30;4.07;;;;;;;2.09;59.86;100251.97;6305186;28;20047;-74
2022/01/22 11:24:46;;;;;;;4.25;2.83;;;;;;;1.75;59.98;100251.00;6323040;28;20067;-74
2022/01/22 11:27:47;;;;;;;4.00;2.55;;;;;;;1.77;57.87;100241.53;6305143;28;20139;-74
2022/01/22 11:30:49;;;;;;;9.23;2.70;;;;;;;2.35;54.33;100247.06;6304919;28;20048;-74
2022/01/22 11:33:53;;;;;;;3.75;2.15;;;;;;;1.87;55.00;100247.28;6323244;28;20044;-74
2022/01/22 11:37:33;;;;;;;5.45;2.63;;;;;;;2.00;56.54;100250.47;6323047;28;20043;-74
2022/01/22 11:40:35;;;;;;;8.38;3.42;;;;;;;2.01;57.86;100257.28;6322650;28;20485;-74
2022/01/22 11:44:26;;;;;;;6.85;3.40;;;;;;;2.39;58.10;100251.25;6304683;28;20044;-74
2022/01/22 11:47:22;;;;;;;7.65;2.78;;;;;;;2.39;56.46;100253.00;6319615;28;20056;-74
2022/01/22 11:50:23;;;;;;;7.45;2.38;;;;;;;2.14;56.38;100245.84;6322597;28;20476;-74
2022/01/22 11:53:37;;;;;;;6.43;2.33;;;;;;;1.57;56.69;100252.22;6322440;28;20036;-74
2022/01/22 11:56:48;;;;;;;8.98;2.95;;;;;;;1.74;56.49;100245.88;6304762;28;20131;-74
2022/01/22 12:00:17;;;;;;;6.60;2.58;;;;;;;1.38;53.82;100250.88;6304176;28;20040;-74
2022/01/22 12:03:19;;;;;;;6.75;2.38;;;;;;;1.41;50.81;100253.41;6322419;28;20063;-74
2022/01/22 12:06:19;;;;;;;7.22;3.85;;;;;;;1.70;50.35;100257.94;6304218;28;20127;-74
2022/01/22 12:09:26;;;;;;;7.70;3.80;;;;;;;1.63;50.44;100253.81;6303697;28;20046;-74
2022/01/22 12:15:52;;;;;;;4.55;2.45;;;;;;;1.66;50.33;100247.75;6321938;28;20476;-74
2022/01/22 12:18:59;;;;;;;8.88;2.78;;;;;;;1.68;49.89;100243.44;6304254;28;20507;-74
2022/01/22 12:22:00;;;;;;;3.05;2.05;;;;;;;1.63;48.25;100253.81;6321816;28;20122;-74
2022/01/22 12:25:22;;;;;;;7.10;1.80;;;;;;;1.72;47.71;100251.03;6286999;28;20035;-74
2022/01/22 12:28:45;;;;;;;5.60;2.40;;;;;;;1.93;47.07;100244.56;6303705;28;20040;-73
2022/01/22 12:32:11;;;;;;;6.57;2.67;;;;;;;2.13;46.83;100238.97;6321738;28;20073;-74
2022/01/22 12:35:32;;;;;;;7.70;2.92;;;;;;;1.91;47.27;100232.63;6289881;28;20689;-74
2022/01/22 12:38:46;;;;;;;6.18;2.60;;;;;;;1.85;47.77;100231.03;6287053;28;20556;-74
2022/01/22 12:41:57;;;;;;;4.97;2.45;;;;;;;1.80;48.20;100235.44;6303230;28;20048;-73
2022/01/22 12:45:05;;;;;;;13.70;3.40;;;;;;;1.93;48.69;100248.88;6321326;28;20040;-74
2022/01/22 12:48:07;;;;;;;4.53;2.72;;;;;;;1.68;49.34;100246.00;6304348;28;20506;-73
2022/01/22 12:51:09;;;;;;;5.05;3.03;;;;;;;1.61;50.28;100247.88;6321245;28;20054;-74
2022/01/22 12:54:10;;;;;;;5.05;2.50;;;;;;;1.35;50.48;100256.94;6303191;28;20036;-74
2022/01/22 12:57:15;;;;;;;5.47;2.65;;;;;;;1.33;51.11;100247.59;6303095;28;20040;-73
2022/01/22 13:00:18;;;;;;;4.40;2.90;;;;;;;1.22;50.66;100250.38;6320958;28;20551;-75
2022/01/22 13:03:36;;;;;;;6.00;3.40;;;;;;;1.13;51.39;100258.25;6286296;28;20052;-74
2022/01/22 13:06:49;;;;;;;6.32;3.25;;;;;;;1.05;54.10;100265.25;6320863;28;20040;-74
2022/01/22 13:09:54;;;;;;;10.65;4.00;;;;;;;1.05;55.29;100262.69;6320951;28;20044;-74
2022/01/22 13:12:57;;;;;;;6.28;3.53;;;;;;;1.11;53.36;100268.56;6320846;28;20503;-74
2022/01/22 13:16:06;;;;;;;8.40;3.15;;;;;;;0.97;54.42;100281.66;6302892;28;20133;-74
2022/01/22 13:19:07;;;;;;;7.40;3.72;;;;;;;0.90;54.39;100290.34;6302799;28;20048;-74
2022/01/22 13:22:08;;;;;;;6.55;3.90;;;;;;;1.06;55.28;100297.78;6323171;28;20060;-74
2022/01/22 13:25:12;;;;;;;7.15;4.03;;;;;;;1.02;55.21;100291.00;6307863;28;20048;-74
2022/01/22 13:28:15;;;;;;;7.35;3.00;;;;;;;0.99;55.32;100297.06;6325900;28;20089;-74
2022/01/22 13:31:17;;;;;;;10.20;3.72;;;;;;;1.05;55.73;100298.66;6308105;28;20401;-69
2022/01/22 13:34:30;;;;;;;;;;;;;;;1.02;55.63;100306.44;6308551;28;20506;-70
2022/01/22 13:47:53;;;;;;;10.23;5.30;;;;;;;0.83;61.90;100316.19;6325513;28;20064;-70
2022/01/22 13:50:54;;;;;;;10.80;6.20;;;;;;;0.94;62.95;100333.09;6290945;28;20044;-69
2022/01/22 13:53:57;;;;;;;18.83;10.82;;;;;;;0.83;64.09;100340.16;6325717;28;20047;-69
2022/01/22 13:57:06;;;;;;;32.35;11.35;;;;;;;0.68;65.73;100338.69;6325155;28;20044;-69
2022/01/22 14:00:14;;;;;;;19.90;8.18;;;;;;;0.88;64.26;100342.63;6307159;28;20079;-70
2022/01/22 14:06:33;;;;;;;17.33;7.75;;;;;;;1.04;61.71;100350.94;6325015;28;20109;-69
2022/01/22 14:09:34;;;;;;;21.63;9.40;;;;;;;0.70;63.63;100359.19;6307064;28;20060;-70
2022/01/22 14:12:49;;;;;;;14.68;6.22;;;;;;;0.74;64.77;100351.44;6307041;28;20380;-69
2022/01/22 14:15:50;;;;;;;11.20;5.43;;;;;;;0.91;64.95;100356.28;6306745;28;20110;-69
2022/01/22 14:18:51;;;;;;;13.27;5.53;;;;;;;0.75;63.96;100359.97;6306944;28;20040;-74
2022/01/22 14:21:56;;;;;;;19.45;7.20;;;;;;;0.54;64.68;100358.59;6306543;28;20050;-74
2022/01/22 14:25:13;;;;;;;6.65;3.67;;;;;;;0.65;63.81;100371.25;6306784;28;20036;-73
2022/01/22 14:28:14;;;;;;;10.23;4.20;;;;;;;0.35;62.98;100374.25;6306348;28;20036;-73
2022/01/22 14:31:24;;;;;;;10.18;4.15;;;;;;;0.27;62.99;100382.91;6289969;28;20094;-73
2022/01/22 14:34:34;;;;;;;15.68;6.72;;;;;;;0.34;64.14;100400.78;6323887;28;20089;-73
2022/01/22 14:37:34;;;;;;;7.30;4.00;;;;;;;0.53;64.17;100409.06;6306301;28;20040;-73
2022/01/22 14:47:11;;;;;;;9.80;4.43;;;;;;;0.39;69.48;100440.09;6324012;28;20488;-73
2022/01/22 14:50:12;;;;;;;6.38;3.65;;;;;;;0.06;70.95;100440.50;6306422;28;20446;-73
2022/01/22 14:53:13;;;;;;;8.30;3.75;;;;;;;0.18;70.25;100463.44;6305940;28;20040;-73
2022/01/22 14:56:20;;;;;;;6.47;3.60;;;;;;;0.13;70.55;100467.78;6289253;28;20101;-74
2022/01/22 14:59:21;;;;;;;4.28;2.15;;;;;;;-0.19;76.34;100489.50;6323816;28;20496;-73
2022/01/22 15:02:22;;;;;;;7.22;3.33;;;;;;;-0.28;79.27;100495.56;6323675;28;20077;-73
2022/01/22 15:05:23;;;;;;;5.40;2.47;;;;;;;-0.46;84.91;100496.59;6323646;28;20047;-74
2022/01/22 15:08:24;;;;;;;3.60;1.83;;;;;;;-0.59;86.62;100499.28;6305585;28;20086;-74
2022/01/22 15:11:24;;;;;;;2.90;1.70;;;;;;;-0.55;83.78;100486.41;6305921;28;20115;-74
2022/01/22 15:14:28;;;;;;;10.82;3.40;;;;;;;-0.48;81.89;100498.31;6305536;28;20036;-75
2022/01/22 15:18:14;;;;;;;8.73;3.70;;;;;;;-0.45;81.29;100495.72;6305672;28;20040;-73
2022/01/22 15:20:52;;;;;;;8.43;3.50;;;;;;;-0.50;80.78;100500.03;6314954;28;20052;-74
2022/01/22 15:23:54;;;;;;;11.63;4.70;;;;;;;-0.43;80.71;100514.50;6323162;28;20467;-73
2022/01/22 15:26:54;;;;;;;10.65;4.55;;;;;;;-0.51;79.36;100518.84;6305057;28;20036;-73
2022/01/22 15:33:18;;;;;;;6.05;3.30;;;;;;;-0.46;80.19;100514.53;6305141;28;20032;-73
2022/01/22 15:36:20;;;;;;;8.90;4.00;;;;;;;-0.45;79.59;100521.38;6291501;28;20545;-73
2022/01/22 15:39:21;;;;;;;9.32;4.60;;;;;;;-0.41;80.04;100525.63;6304817;28;20036;-74
2022/01/22 15:42:21;;;;;;;9.60;3.85;;;;;;;-0.43;81.50;100534.19;6322665;28;20055;-73
2022/01/22 15:45:25;;;;;;;10.63;4.45;;;;;;;-0.55;82.74;100537.69;6303923;28;20051;-73
2022/01/22 15:48:26;;;;;;;10.25;4.40;;;;;;;-0.56;81.78;100530.84;6322613;28;20407;-72
2022/01/22 15:51:27;;;;;;;21.98;6.97;;;;;;;-0.48;81.47;100538.47;6304422;28;20052;-73
2022/01/22 15:54:28;;;;;;;11.85;4.80;;;;;;;-0.49;81.74;100536.81;6322569;28;20389;-73
2022/01/22 15:57:30;;;;;;;9.65;4.70;;;;;;;-0.63;82.22;100537.75;6287759;28;20051;-73
2022/01/22 16:00:38;;;;;;;9.30;4.90;;;;;;;-0.65;82.33;100542.03;6322693;28;20120;-73
2022/01/22 16:03:43;;;;;;;7.32;4.40;;;;;;;-0.68;82.94;100543.75;6322219;28;20036;-73
2022/01/22 16:09:46;;;;;;;11.52;5.28;;;;;;;-0.88;84.04;100570.38;6322093;28;20460;-73
2022/01/22 16:12:48;;;;;;;9.90;5.65;;;;;;;-0.98;84.08;100573.84;6304394;28;20039;-73
2022/01/22 16:15:49;;;;;;;9.55;5.43;;;;;;;-0.96;81.76;100574.69;6322064;28;20040;-72
2022/01/22 16:18:50;;;;;;;12.43;6.95;;;;;;;-0.89;80.17;100584.03;6270679;28;20050;-72
2022/01/22 16:21:52;;;;;;;14.10;6.10;;;;;;;-0.95;78.77;100594.31;6303824;28;20071;-72
2022/01/22 16:24:55;;;;;;;24.60;8.15;;;;;;;-0.90;78.31;100599.44;6303664;28;20491;-72
2022/01/22 16:27:56;;;;;;;14.55;6.47;;;;;;;-0.95;78.15;100596.03;6303667;28;20036;-72